KRWI/RWI METAR and TAF weather

Enter ICAO airport designator
Station Type Date Time Source
KRWI METAR 2022/01/29 09:53 UTC NOAA

KRWI 290953Z AUTO 35014G21KT 3SM -SN BR BKN013 BKN018 OVC025 01/M02 A2975 RMK AO2 SNE05B28 SLP076 P0000 T00061017


Station Type Date Time Source
KRWI Decoded METAR 2022/01/29 09:53 UTC NOAA

ROCKY MOUNT-WILSON AIRPORT, NC, United States (KRWI) 35-51N 077-54W 47M
Jan 29, 2022 - 04:53 AM EST / 2022.01.29 0953 UTC
Wind: from the N (350 degrees) at 16 MPH (14 KT) gusting to 24 MPH (21 KT):0
Visibility: 3 mile(s):0
Sky conditions: overcast
Weather: light snow; mist
Precipitation last hour: A trace
Temperature: 33.1 F (0.6 C)
Windchill: 23 F (-5 C):1
Dew Point: 28.9 F (-1.7 C)
Relative Humidity: 84%
Pressure (altimeter): 29.75 in. Hg (1007 hPa)
ob: KRWI 290953Z AUTO 35014G21KT 3SM -SN BR BKN013 BKN018 OVC025 01/M02 A2975 RMK AO2 SNE05B28 SLP076 P0000 T00061017
cycle: 10

Station Type Date Time Source
KRWI TAF 2022/01/29 08:09 UTC NOAA

TAF
AMD KRWI 290806Z 2908/3006 36012G24KT 5SM -SN BR SCT006 BKN015 OVC020
TEMPO 2908/2912 35012KT 1 1/2SM -SN BR OVC006
FM291300 34015G28KT 3SM -SN OVC010
FM291500 35014G25KT P6SM SCT035 BKN060
FM292300 32010G18KT P6SM FEW060

Example: see airport list